sensor_id;sensor_type;location;lat;lon;timestamp;pressure;altitude;pressure_sealevel;temperature;humidity
6433;BME280;3249;42.690;23.260;2022-12-07T00:03:36;94365.03;;;5.92;100.00
6433;BME280;3249;42.690;23.260;2022-12-07T00:06:03;94358.03;;;6.01;100.00
6433;BME280;3249;42.690;23.260;2022-12-07T00:08:28;94362.53;;;5.99;100.00
6433;BME280;3249;42.690;23.260;2022-12-07T00:10:55;94362.97;;;6.02;100.00
6433;BME280;3249;42.690;23.260;2022-12-07T00:13:20;94352.22;;;5.65;100.00
6433;BME280;3249;42.690;23.260;2022-12-07T00:15:46;94359.47;;;5.82;100.00
6433;BME280;3249;42.690;23.260;2022-12-07T00:18:11;94356.81;;;5.97;100.00
6433;BME280;3249;42.690;23.260;2022-12-07T00:20:37;94365.19;;;5.63;100.00
6433;BME280;3249;42.690;23.260;2022-12-07T00:23:02;94362.06;;;5.47;100.00
6433;BME280;3249;42.690;23.260;2022-12-07T00:25:27;94361.22;;;5.61;100.00
6433;BME280;3249;42.690;23.260;2022-12-07T00:27:53;94357.25;;;5.58;100.00
6433;BME280;3249;42.690;23.260;2022-12-07T00:30:22;94353.72;;;5.80;100.00
6433;BME280;3249;42.690;23.260;2022-12-07T00:32:47;94351.69;;;5.48;100.00
6433;BME280;3249;42.690;23.260;2022-12-07T00:35:13;94361.47;;;5.66;100.00
6433;BME280;3249;42.690;23.260;2022-12-07T00:37:38;94370.72;;;5.25;100.00
6433;BME280;3249;42.690;23.260;2022-12-07T00:40:04;94358.19;;;5.30;100.00
6433;BME280;3249;42.690;23.260;2022-12-07T00:42:30;94356.69;;;4.99;100.00
6433;BME280;3249;42.690;23.260;2022-12-07T00:44:55;94355.19;;;5.05;100.00
6433;BME280;3249;42.690;23.260;2022-12-07T00:47:21;94359.28;;;5.21;100.00
6433;BME280;3249;42.690;23.260;2022-12-07T00:49:46;94356.91;;;5.19;100.00
6433;BME280;3249;42.690;23.260;2022-12-07T00:52:11;94343.66;;;5.09;100.00
6433;BME280;3249;42.690;23.260;2022-12-07T00:54:37;94350.38;;;4.95;100.00
6433;BME280;3249;42.690;23.260;2022-12-07T00:57:02;94357.63;;;5.13;100.00
6433;BME280;3249;42.690;23.260;2022-12-07T00:59:28;94348.63;;;5.38;100.00
6433;BME280;3249;42.690;23.260;2022-12-07T01:01:53;94347.91;;;5.44;100.00
6433;BME280;3249;42.690;23.260;2022-12-07T01:04:19;94355.75;;;5.64;100.00
6433;BME280;3249;42.690;23.260;2022-12-07T01:06:44;94357.38;;;5.71;100.00
6433;BME280;3249;42.690;23.260;2022-12-07T01:09:09;94349.16;;;5.76;100.00
6433;BME280;3249;42.690;23.260;2022-12-07T01:11:35;94351.16;;;5.80;100.00
6433;BME280;3249;42.690;23.260;2022-12-07T01:14:00;94358.72;;;5.88;100.00
6433;BME280;3249;42.690;23.260;2022-12-07T01:16:28;94343.75;;;5.85;100.00
6433;BME280;3249;42.690;23.260;2022-12-07T01:18:55;94352.41;;;5.84;100.00
6433;BME280;3249;42.690;23.260;2022-12-07T01:21:30;94346.94;;;5.87;100.00
6433;BME280;3249;42.690;23.260;2022-12-07T01:24:00;94327.38;;;5.80;100.00
6433;BME280;3249;42.690;23.260;2022-12-07T01:26:26;94337.88;;;5.85;100.00
6433;BME280;3249;42.690;23.260;2022-12-07T01:28:52;94336.19;;;5.77;100.00
6433;BME280;3249;42.690;23.260;2022-12-07T01:31:21;94338.56;;;5.79;100.00
6433;BME280;3249;42.690;23.260;2022-12-07T01:33:50;94336.06;;;5.58;100.00
6433;BME280;3249;42.690;23.260;2022-12-07T01:36:20;94326.75;;;5.71;100.00
6433;BME280;3249;42.690;23.260;2022-12-07T01:38:47;94336.25;;;5.56;100.00
6433;BME280;3249;42.690;23.260;2022-12-07T01:41:14;94336.47;;;5.61;100.00
6433;BME280;3249;42.690;23.260;2022-12-07T01:46:45;94333.69;;;5.56;100.00
6433;BME280;3249;42.690;23.260;2022-12-07T01:49:16;94335.97;;;5.72;100.00
6433;BME280;3249;42.690;23.260;2022-12-07T01:51:43;94326.47;;;5.81;100.00
6433;BME280;3249;42.690;23.260;2022-12-07T01:54:11;94329.78;;;5.60;100.00
6433;BME280;3249;42.690;23.260;2022-12-07T01:56:38;94304.44;;;5.59;100.00
6433;BME280;3249;42.690;23.260;2022-12-07T01:59:05;94318.41;;;5.63;100.00
6433;BME280;3249;42.690;23.260;2022-12-07T02:01:30;94322.84;;;5.75;100.00
6433;BME280;3249;42.690;23.260;2022-12-07T02:03:57;94325.88;;;5.85;100.00
6433;BME280;3249;42.690;23.260;2022-12-07T02:06:25;94323.94;;;5.87;100.00
6433;BME280;3249;42.690;23.260;2022-12-07T02:08:51;94324.50;;;5.83;100.00
6433;BME280;3249;42.690;23.260;2022-12-07T02:11:17;94322.22;;;5.94;100.00
6433;BME280;3249;42.690;23.260;2022-12-07T02:13:43;94325.75;;;5.93;100.00
6433;BME280;3249;42.690;23.260;2022-12-07T02:16:25;94310.75;;;5.84;100.00
6433;BME280;3249;42.690;23.260;2022-12-07T02:21:48;94316.94;;;5.75;100.00
6433;BME280;3249;42.690;23.260;2022-12-07T02:30:03;94295.84;;;5.66;100.00
6433;BME280;3249;42.690;23.260;2022-12-07T02:38:18;94308.88;;;5.71;100.00
6433;BME280;3249;42.690;23.260;2022-12-07T02:40:54;94296.78;;;5.59;100.00
6433;BME280;3249;42.690;23.260;2022-12-07T02:43:28;94290.84;;;5.52;100.00
6433;BME280;3249;42.690;23.260;2022-12-07T02:46:04;94299.88;;;5.54;100.00
6433;BME280;3249;42.690;23.260;2022-12-07T02:48:33;94303.81;;;5.29;100.00
6433;BME280;3249;42.690;23.260;2022-12-07T02:50:59;94305.69;;;5.42;100.00
6433;BME280;3249;42.690;23.260;2022-12-07T02:56:18;94288.47;;;5.02;100.00
6433;BME280;3249;42.690;23.260;2022-12-07T03:01:47;94254.75;;;4.85;100.00
6433;BME280;3249;42.690;23.260;2022-12-07T03:10:05;94285.91;;;5.02;100.00
6433;BME280;3249;42.690;23.260;2022-12-07T03:12:43;94268.41;;;4.98;100.00
6433;BME280;3249;42.690;23.260;2022-12-07T03:15:21;94267.59;;;4.98;100.00
6433;BME280;3249;42.690;23.260;2022-12-07T03:17:49;94258.88;;;4.86;100.00
6433;BME280;3249;42.690;23.260;2022-12-07T03:20:18;94280.69;;;5.10;100.00
6433;BME280;3249;42.690;23.260;2022-12-07T03:22:47;94269.19;;;5.20;100.00
6433;BME280;3249;42.690;23.260;2022-12-07T03:25:15;94288.69;;;5.28;100.00
6433;BME280;3249;42.690;23.260;2022-12-07T03:30:15;94282.50;;;5.37;100.00
6433;BME280;3249;42.690;23.260;2022-12-07T03:32:43;94283.94;;;5.46;100.00
6433;BME280;3249;42.690;23.260;2022-12-07T03:35:22;94290.66;;;5.53;100.00
6433;BME280;3249;42.690;23.260;2022-12-07T03:37:57;94288.81;;;5.41;100.00
6433;BME280;3249;42.690;23.260;2022-12-07T03:40:34;94278.41;;;5.21;100.00
6433;BME280;3249;42.690;23.260;2022-12-07T03:43:00;94280.91;;;5.36;100.00
6433;BME280;3249;42.690;23.260;2022-12-07T03:46:14;94290.00;;;5.45;100.00
6433;BME280;3249;42.690;23.260;2022-12-07T03:48:40;94286.38;;;5.33;100.00
6433;BME280;3249;42.690;23.260;2022-12-07T03:54:02;94276.69;;;4.65;100.00
6433;BME280;3249;42.690;23.260;2022-12-07T03:56:33;94276.69;;;4.65;100.00
6433;BME280;3249;42.690;23.260;2022-12-07T03:59:00;94262.72;;;4.61;100.00
6433;BME280;3249;42.690;23.260;2022-12-07T04:01:25;94274.53;;;4.83;100.00
6433;BME280;3249;42.690;23.260;2022-12-07T04:03:51;94264.41;;;4.89;100.00
6433;BME280;3249;42.690;23.260;2022-12-07T04:06:16;94270.22;;;4.83;100.00
6433;BME280;3249;42.690;23.260;2022-12-07T04:08:42;94270.91;;;4.71;100.00
6433;BME280;3249;42.690;23.260;2022-12-07T04:11:07;94235.22;;;4.71;100.00
6433;BME280;3249;42.690;23.260;2022-12-07T04:13:32;94266.53;;;5.07;100.00
6433;BME280;3249;42.690;23.260;2022-12-07T04:16:18;94267.72;;;4.90;100.00
6433;BME280;3249;42.690;23.260;2022-12-07T04:18:43;94242.16;;;4.83;100.00
6433;BME280;3249;42.690;23.260;2022-12-07T04:21:09;94271.63;;;5.07;100.00
6433;BME280;3249;42.690;23.260;2022-12-07T04:23:34;94259.25;;;4.83;100.00
6433;BME280;3249;42.690;23.260;2022-12-07T04:25:59;94258.69;;;4.87;100.00
6433;BME280;3249;42.690;23.260;2022-12-07T04:28:25;94273.91;;;5.02;100.00
6433;BME280;3249;42.690;23.260;2022-12-07T04:30:50;94276.91;;;5.06;100.00
6433;BME280;3249;42.690;23.260;2022-12-07T04:33:16;94275.53;;;5.03;100.00
6433;BME280;3249;42.690;23.260;2022-12-07T04:35:43;94272.53;;;4.99;100.00
6433;BME280;3249;42.690;23.260;2022-12-07T04:38:08;94274.31;;;4.99;100.00
6433;BME280;3249;42.690;23.260;2022-12-07T04:40:34;94249.88;;;4.90;100.00
6433;BME280;3249;42.690;23.260;2022-12-07T04:43:00;94274.38;;;5.06;100.00
6433;BME280;3249;42.690;23.260;2022-12-07T04:45:25;94272.97;;;5.03;100.00
6433;BME280;3249;42.690;23.260;2022-12-07T04:47:50;94283.78;;;5.05;100.00
6433;BME280;3249;42.690;23.260;2022-12-07T04:50:16;94273.75;;;5.03;100.00
6433;BME280;3249;42.690;23.260;2022-12-07T04:52:41;94282.72;;;4.99;100.00
6433;BME280;3249;42.690;23.260;2022-12-07T04:55:07;94283.25;;;4.74;100.00
6433;BME280;3249;42.690;23.260;2022-12-07T04:57:32;94273.16;;;4.66;100.00
6433;BME280;3249;42.690;23.260;2022-12-07T04:59:58;94282.97;;;4.83;100.00
6433;BME280;3249;42.690;23.260;2022-12-07T05:02:23;94281.66;;;4.52;100.00
6433;BME280;3249;42.690;23.260;2022-12-07T05:04:48;94281.31;;;4.55;100.00
6433;BME280;3249;42.690;23.260;2022-12-07T05:07:14;94273.66;;;4.55;100.00
6433;BME280;3249;42.690;23.260;2022-12-07T05:09:39;94281.28;;;4.69;100.00
6433;BME280;3249;42.690;23.260;2022-12-07T05:12:04;94267.38;;;4.72;100.00
6433;BME280;3249;42.690;23.260;2022-12-07T05:14:30;94271.72;;;4.78;100.00
6433;BME280;3249;42.690;23.260;2022-12-07T05:16:55;94277.63;;;4.78;100.00
6433;BME280;3249;42.690;23.260;2022-12-07T05:19:21;94276.59;;;4.94;100.00
6433;BME280;3249;42.690;23.260;2022-12-07T05:21:47;94291.78;;;5.02;100.00
6433;BME280;3249;42.690;23.260;2022-12-07T05:24:14;94289.66;;;5.06;100.00
6433;BME280;3249;42.690;23.260;2022-12-07T05:26:40;94286.44;;;4.97;100.00
6433;BME280;3249;42.690;23.260;2022-12-07T05:29:05;94282.78;;;4.85;100.00
6433;BME280;3249;42.690;23.260;2022-12-07T05:31:31;94275.47;;;4.61;100.00
6433;BME280;3249;42.690;23.260;2022-12-07T05:33:56;94274.03;;;4.73;100.00
6433;BME280;3249;42.690;23.260;2022-12-07T05:36:22;94264.06;;;4.57;100.00
6433;BME280;3249;42.690;23.260;2022-12-07T05:38:48;94276.13;;;4.84;100.00
6433;BME280;3249;42.690;23.260;2022-12-07T05:41:16;94280.75;;;4.95;100.00
6433;BME280;3249;42.690;23.260;2022-12-07T05:44:00;94272.34;;;5.01;100.00
6433;BME280;3249;42.690;23.260;2022-12-07T05:46:26;94269.22;;;4.99;100.00
6433;BME280;3249;42.690;23.260;2022-12-07T05:48:52;94240.59;;;5.03;100.00
6433;BME280;3249;42.690;23.260;2022-12-07T05:51:17;94259.66;;;5.07;100.00
6433;BME280;3249;42.690;23.260;2022-12-07T05:53:44;94268.97;;;5.15;100.00
6433;BME280;3249;42.690;23.260;2022-12-07T05:56:12;94266.16;;;5.10;100.00
6433;BME280;3249;42.690;23.260;2022-12-07T05:58:38;94260.47;;;4.87;100.00
6433;BME280;3249;42.690;23.260;2022-12-07T06:01:22;94263.50;;;4.97;100.00
6433;BME280;3249;42.690;23.260;2022-12-07T06:03:47;94251.75;;;4.60;100.00
6433;BME280;3249;42.690;23.260;2022-12-07T06:06:13;94261.81;;;4.68;100.00
6433;BME280;3249;42.690;23.260;2022-12-07T06:08:38;94266.69;;;4.84;100.00
6433;BME280;3249;42.690;23.260;2022-12-07T06:11:04;94259.53;;;4.94;100.00
6433;BME280;3249;42.690;23.260;2022-12-07T06:13:48;94272.41;;;5.07;100.00
6433;BME280;3249;42.690;23.260;2022-12-07T06:16:13;94278.38;;;4.93;100.00
6433;BME280;3249;42.690;23.260;2022-12-07T06:18:38;94277.97;;;4.96;100.00
6433;BME280;3249;42.690;23.260;2022-12-07T06:21:04;94273.25;;;5.15;100.00
6433;BME280;3249;42.690;23.260;2022-12-07T06:23:29;94278.06;;;5.24;100.00
6433;BME280;3249;42.690;23.260;2022-12-07T06:25:55;94276.03;;;5.41;100.00
6433;BME280;3249;42.690;23.260;2022-12-07T06:28:20;94278.66;;;5.47;100.00
6433;BME280;3249;42.690;23.260;2022-12-07T06:30:45;94287.69;;;5.50;100.00
6433;BME280;3249;42.690;23.260;2022-12-07T06:33:11;94269.97;;;5.42;100.00
6433;BME280;3249;42.690;23.260;2022-12-07T06:35:36;94287.78;;;5.63;100.00
6433;BME280;3249;42.690;23.260;2022-12-07T06:38:02;94287.59;;;5.64;100.00
6433;BME280;3249;42.690;23.260;2022-12-07T06:40:27;94291.84;;;5.78;100.00
6433;BME280;3249;42.690;23.260;2022-12-07T06:42:52;94287.09;;;5.75;100.00
6433;BME280;3249;42.690;23.260;2022-12-07T06:45:18;94295.75;;;5.53;100.00
6433;BME280;3249;42.690;23.260;2022-12-07T06:47:43;94298.44;;;5.45;100.00
6433;BME280;3249;42.690;23.260;2022-12-07T06:50:09;94302.81;;;5.30;100.00
6433;BME280;3249;42.690;23.260;2022-12-07T06:52:34;94300.38;;;5.64;100.00
6433;BME280;3249;42.690;23.260;2022-12-07T06:55:00;94299.19;;;5.67;100.00
6433;BME280;3249;42.690;23.260;2022-12-07T06:57:26;94298.06;;;5.76;100.00
6433;BME280;3249;42.690;23.260;2022-12-07T06:59:51;94297.91;;;5.77;100.00
6433;BME280;3249;42.690;23.260;2022-12-07T07:05:01;94297.31;;;5.27;100.00
6433;BME280;3249;42.690;23.260;2022-12-07T07:07:26;94302.38;;;5.20;100.00
6433;BME280;3249;42.690;23.260;2022-12-07T07:09:52;94302.81;;;5.30;100.00
6433;BME280;3249;42.690;23.260;2022-12-07T07:12:17;94288.88;;;4.84;100.00
6433;BME280;3249;42.690;23.260;2022-12-07T07:14:43;94273.56;;;4.63;100.00
6433;BME280;3249;42.690;23.260;2022-12-07T07:17:08;94287.41;;;4.75;100.00
6433;BME280;3249;42.690;23.260;2022-12-07T07:19:34;94286.06;;;4.79;100.00
6433;BME280;3249;42.690;23.260;2022-12-07T07:21:59;94281.22;;;4.84;100.00
6433;BME280;3249;42.690;23.260;2022-12-07T07:24:27;94283.59;;;4.85;100.00
6433;BME280;3249;42.690;23.260;2022-12-07T07:26:53;94304.59;;;5.30;100.00
6433;BME280;3249;42.690;23.260;2022-12-07T07:29:19;94284.25;;;5.36;100.00
6433;BME280;3249;42.690;23.260;2022-12-07T07:31:44;94306.31;;;5.71;100.00
6433;BME280;3249;42.690;23.260;2022-12-07T07:34:09;94305.19;;;5.80;100.00
6433;BME280;3249;42.690;23.260;2022-12-07T07:36:35;94286.66;;;5.72;100.00
6433;BME280;3249;42.690;23.260;2022-12-07T07:39:00;94307.84;;;5.93;100.00
6433;BME280;3249;42.690;23.260;2022-12-07T07:41:26;94310.88;;;6.03;100.00
6433;BME280;3249;42.690;23.260;2022-12-07T07:43:51;94305.03;;;6.16;100.00
6433;BME280;3249;42.690;23.260;2022-12-07T07:46:16;94312.41;;;5.98;100.00
6433;BME280;3249;42.690;23.260;2022-12-07T07:48:42;94308.84;;;5.92;100.00
6433;BME280;3249;42.690;23.260;2022-12-07T07:51:07;94302.41;;;6.03;100.00
6433;BME280;3249;42.690;23.260;2022-12-07T07:53:33;94299.56;;;6.19;100.00
6433;BME280;3249;42.690;23.260;2022-12-07T07:55:58;94313.56;;;6.29;100.00
6433;BME280;3249;42.690;23.260;2022-12-07T07:58:24;94291.75;;;6.33;100.00
6433;BME280;3249;42.690;23.260;2022-12-07T08:00:49;94310.75;;;6.52;100.00
6433;BME280;3249;42.690;23.260;2022-12-07T08:03:15;94316.63;;;6.52;100.00
6433;BME280;3249;42.690;23.260;2022-12-07T08:05:40;94290.19;;;6.32;100.00
6433;BME280;3249;42.690;23.260;2022-12-07T08:08:06;94316.06;;;6.50;100.00
6433;BME280;3249;42.690;23.260;2022-12-07T08:10:31;94302.44;;;6.43;100.00
6433;BME280;3249;42.690;23.260;2022-12-07T08:12:57;94297.91;;;6.45;100.00
6433;BME280;3249;42.690;23.260;2022-12-07T08:15:44;94306.19;;;6.47;100.00
6433;BME280;3249;42.690;23.260;2022-12-07T08:18:11;94308.38;;;6.50;100.00
6433;BME280;3249;42.690;23.260;2022-12-07T08:20:37;94311.72;;;6.57;100.00
6433;BME280;3249;42.690;23.260;2022-12-07T08:23:03;94309.94;;;6.51;100.00
6433;BME280;3249;42.690;23.260;2022-12-07T08:25:30;94313.34;;;6.65;100.00
6433;BME280;3249;42.690;23.260;2022-12-07T08:27:55;94297.56;;;6.55;100.00
6433;BME280;3249;42.690;23.260;2022-12-07T08:30:24;94302.50;;;6.63;100.00
6433;BME280;3249;42.690;23.260;2022-12-07T08:32:49;94303.31;;;6.63;100.00
6433;BME280;3249;42.690;23.260;2022-12-07T08:35:15;94313.97;;;6.73;100.00
6433;BME280;3249;42.690;23.260;2022-12-07T08:37:41;94298.38;;;6.21;100.00
6433;BME280;3249;42.690;23.260;2022-12-07T08:40:08;94301.19;;;6.26;100.00
6433;BME280;3249;42.690;23.260;2022-12-07T08:42:34;94275.19;;;6.23;100.00
6433;BME280;3249;42.690;23.260;2022-12-07T08:45:06;94293.31;;;6.28;100.00
6433;BME280;3249;42.690;23.260;2022-12-07T08:47:37;94290.69;;;6.55;100.00
6433;BME280;3249;42.690;23.260;2022-12-07T08:50:04;94288.78;;;6.70;100.00
6433;BME280;3249;42.690;23.260;2022-12-07T08:52:31;94286.03;;;6.72;100.00
6433;BME280;3249;42.690;23.260;2022-12-07T08:54:59;94301.22;;;6.80;100.00
6433;BME280;3249;42.690;23.260;2022-12-07T08:57:26;94288.38;;;6.73;100.00
6433;BME280;3249;42.690;23.260;2022-12-07T08:59:55;94292.78;;;6.92;100.00
6433;BME280;3249;42.690;23.260;2022-12-07T09:02:21;94286.72;;;7.06;100.00
6433;BME280;3249;42.690;23.260;2022-12-07T09:04:46;94275.88;;;7.11;100.00
6433;BME280;3249;42.690;23.260;2022-12-07T09:07:12;94281.41;;;7.14;100.00
6433;BME280;3249;42.690;23.260;2022-12-07T09:09:38;94279.84;;;7.26;100.00
6433;BME280;3249;42.690;23.260;2022-12-07T09:12:04;94266.84;;;7.28;100.00
6433;BME280;3249;42.690;23.260;2022-12-07T09:14:29;94280.66;;;7.33;100.00
6433;BME280;3249;42.690;23.260;2022-12-07T09:16:55;94271.59;;;7.44;100.00
6433;BME280;3249;42.690;23.260;2022-12-07T09:19:20;94277.69;;;7.49;100.00
6433;BME280;3249;42.690;23.260;2022-12-07T09:21:46;94271.97;;;7.54;100.00
6433;BME280;3249;42.690;23.260;2022-12-07T09:24:14;94268.22;;;7.69;100.00
6433;BME280;3249;42.690;23.260;2022-12-07T09:26:39;94276.69;;;7.89;100.00
6433;BME280;3249;42.690;23.260;2022-12-07T09:29:05;94264.06;;;7.68;100.00
6433;BME280;3249;42.690;23.260;2022-12-07T09:31:31;94255.03;;;7.46;100.00
6433;BME280;3249;42.690;23.260;2022-12-07T09:33:58;94267.03;;;7.72;100.00
6433;BME280;3249;42.690;23.260;2022-12-07T09:36:25;94262.69;;;7.85;100.00
6433;BME280;3249;42.690;23.260;2022-12-07T09:38:52;94236.53;;;7.25;100.00
6433;BME280;3249;42.690;23.260;2022-12-07T09:41:17;94243.22;;;7.52;100.00
6433;BME280;3249;42.690;23.260;2022-12-07T09:43:43;94235.31;;;7.73;100.00
6433;BME280;3249;42.690;23.260;2022-12-07T09:46:16;94251.41;;;7.99;100.00
6433;BME280;3249;42.690;23.260;2022-12-07T09:48:44;94250.66;;;7.86;100.00
6433;BME280;3249;42.690;23.260;2022-12-07T09:51:19;94245.50;;;7.92;100.00
6433;BME280;3249;42.690;23.260;2022-12-07T09:53:46;94247.06;;;8.06;100.00
6433;BME280;3249;42.690;23.260;2022-12-07T09:56:14;94240.91;;;8.20;100.00
6433;BME280;3249;42.690;23.260;2022-12-07T09:58:40;94247.81;;;8.33;100.00
6433;BME280;3249;42.690;23.260;2022-12-07T10:03:36;94250.56;;;8.75;100.00
6433;BME280;3249;42.690;23.260;2022-12-07T10:06:04;94240.06;;;8.83;100.00
6433;BME280;3249;42.690;23.260;2022-12-07T10:08:30;94240.50;;;8.80;100.00
6433;BME280;3249;42.690;23.260;2022-12-07T10:10:57;94241.06;;;8.82;100.00
6433;BME280;3249;42.690;23.260;2022-12-07T10:13:35;94226.50;;;9.07;100.00
6433;BME280;3249;42.690;23.260;2022-12-07T10:16:01;94235.91;;;9.44;100.00
6433;BME280;3249;42.690;23.260;2022-12-07T10:18:35;94220.38;;;9.57;100.00
6433;BME280;3249;42.690;23.260;2022-12-07T10:23:35;94224.03;;;9.68;100.00
6433;BME280;3249;42.690;23.260;2022-12-07T10:28:45;94198.84;;;9.34;100.00
6433;BME280;3249;42.690;23.260;2022-12-07T10:31:20;94206.91;;;9.37;100.00
6433;BME280;3249;42.690;23.260;2022-12-07T10:38:49;94193.59;;;9.22;100.00
6433;BME280;3249;42.690;23.260;2022-12-07T10:41:15;94200.47;;;9.28;100.00
6433;BME280;3249;42.690;23.260;2022-12-07T10:44:07;94192.44;;;9.18;100.00
6433;BME280;3249;42.690;23.260;2022-12-07T10:47:24;94197.28;;;8.77;100.00
6433;BME280;3249;42.690;23.260;2022-12-07T10:55:38;94180.69;;;8.42;100.00
6433;BME280;3249;42.690;23.260;2022-12-07T10:58:23;94173.38;;;8.77;100.00
6433;BME280;3249;42.690;23.260;2022-12-07T11:01:03;94164.00;;;8.64;100.00
6433;BME280;3249;42.690;23.260;2022-12-07T11:06:47;94154.25;;;8.73;100.00
6433;BME280;3249;42.690;23.260;2022-12-07T11:09:38;94164.22;;;8.87;100.00
6433;BME280;3249;42.690;23.260;2022-12-07T11:20:39;94139.81;;;9.70;100.00
6433;BME280;3249;42.690;23.260;2022-12-07T11:26:08;94129.81;;;9.98;100.00
6433;BME280;3249;42.690;23.260;2022-12-07T11:31:30;94131.25;;;10.12;100.00
6433;BME280;3249;42.690;23.260;2022-12-07T11:34:25;94123.03;;;10.04;100.00
6433;BME280;3249;42.690;23.260;2022-12-07T11:36:55;94123.03;;;10.04;100.00
6433;BME280;3249;42.690;23.260;2022-12-07T11:39:36;94126.53;;;9.91;100.00
6433;BME280;3249;42.690;23.260;2022-12-07T11:42:16;94131.03;;;9.96;100.00
6433;BME280;3249;42.690;23.260;2022-12-07T11:44:52;94129.09;;;10.09;100.00
6433;BME280;3249;42.690;23.260;2022-12-07T11:47:38;94125.69;;;10.15;100.00
6433;BME280;3249;42.690;23.260;2022-12-07T11:53:05;94123.00;;;10.22;100.00
6433;BME280;3249;42.690;23.260;2022-12-07T12:01:00;94097.34;;;10.33;100.00
6433;BME280;3249;42.690;23.260;2022-12-07T12:03:33;94109.66;;;10.43;100.00
6433;BME280;3249;42.690;23.260;2022-12-07T12:06:00;94090.59;;;10.21;100.00
6433;BME280;3249;42.690;23.260;2022-12-07T12:08:33;94077.94;;;10.19;100.00
6433;BME280;3249;42.690;23.260;2022-12-07T12:14:22;94094.69;;;10.10;100.00
6433;BME280;3249;42.690;23.260;2022-12-07T12:22:20;94089.22;;;10.48;100.00
6433;BME280;3249;42.690;23.260;2022-12-07T12:24:50;94081.84;;;10.51;100.00
6433;BME280;3249;42.690;23.260;2022-12-07T12:27:29;94074.06;;;10.28;100.00
6433;BME280;3249;42.690;23.260;2022-12-07T12:29:59;94074.97;;;10.34;100.00
6433;BME280;3249;42.690;23.260;2022-12-07T12:32:40;94066.19;;;10.41;100.00
6433;BME280;3249;42.690;23.260;2022-12-07T12:37:53;94056.75;;;10.35;100.00
6433;BME280;3249;42.690;23.260;2022-12-07T12:42:54;94047.69;;;10.33;100.00
6433;BME280;3249;42.690;23.260;2022-12-07T12:45:31;94026.81;;;9.93;100.00
6433;BME280;3249;42.690;23.260;2022-12-07T12:50:41;94055.72;;;10.36;100.00
6433;BME280;3249;42.690;23.260;2022-12-07T12:53:21;94041.81;;;9.96;100.00
6433;BME280;3249;42.690;23.260;2022-12-07T12:58:40;94062.28;;;10.50;100.00
6433;BME280;3249;42.690;23.260;2022-12-07T13:03:57;94061.75;;;10.71;100.00
6433;BME280;3249;42.690;23.260;2022-12-07T13:08:57;94058.16;;;10.20;100.00
6433;BME280;3249;42.690;23.260;2022-12-07T13:11:41;94059.53;;;10.34;100.00
6433;BME280;3249;42.690;23.260;2022-12-07T13:17:05;94066.41;;;10.63;100.00
6433;BME280;3249;42.690;23.260;2022-12-07T13:28:02;94057.50;;;10.65;100.00
6433;BME280;3249;42.690;23.260;2022-12-07T13:30:28;94052.34;;;10.65;100.00
6433;BME280;3249;42.690;23.260;2022-12-07T13:32:57;94061.75;;;10.83;100.00
6433;BME280;3249;42.690;23.260;2022-12-07T13:35:37;94053.63;;;10.97;100.00
6433;BME280;3249;42.690;23.260;2022-12-07T13:38:16;94045.81;;;10.51;100.00
6433;BME280;3249;42.690;23.260;2022-12-07T13:40:59;94050.75;;;10.64;100.00
6433;BME280;3249;42.690;23.260;2022-12-07T13:43:25;94047.41;;;10.75;100.00
6433;BME280;3249;42.690;23.260;2022-12-07T13:45:58;94034.78;;;10.74;100.00
6433;BME280;3249;42.690;23.260;2022-12-07T13:50:59;94043.84;;;10.76;100.00
6433;BME280;3249;42.690;23.260;2022-12-07T13:53:26;94044.06;;;10.63;100.00
6433;BME280;3249;42.690;23.260;2022-12-07T13:55:59;94034.13;;;10.26;100.00
6433;BME280;3249;42.690;23.260;2022-12-07T13:58:26;94033.47;;;10.01;100.00
6433;BME280;3249;42.690;23.260;2022-12-07T14:00:54;94043.75;;;9.83;100.00
6433;BME280;3249;42.690;23.260;2022-12-07T14:03:27;94038.78;;;9.70;100.00
6433;BME280;3249;42.690;23.260;2022-12-07T14:06:13;94034.41;;;9.88;100.00
6433;BME280;3249;42.690;23.260;2022-12-07T14:08:39;94032.84;;;9.87;100.00
6433;BME280;3249;42.690;23.260;2022-12-07T14:11:15;94035.09;;;9.95;100.00
6433;BME280;3249;42.690;23.260;2022-12-07T14:13:51;94039.16;;;10.21;100.00
6433;BME280;3249;42.690;23.260;2022-12-07T14:16:35;94043.88;;;10.24;100.00
6433;BME280;3249;42.690;23.260;2022-12-07T14:19:04;94031.22;;;10.22;100.00
6433;BME280;3249;42.690;23.260;2022-12-07T14:21:32;94050.75;;;10.41;100.00
6433;BME280;3249;42.690;23.260;2022-12-07T14:24:09;94056.97;;;10.34;100.00
6433;BME280;3249;42.690;23.260;2022-12-07T14:26:35;94043.88;;;10.24;100.00
6433;BME280;3249;42.690;23.260;2022-12-07T14:31:46;94031.44;;;10.32;100.00
6433;BME280;3249;42.690;23.260;2022-12-07T14:34:12;94055.56;;;10.49;100.00
6433;BME280;3249;42.690;23.260;2022-12-07T14:36:37;94049.94;;;10.52;100.00
6433;BME280;3249;42.690;23.260;2022-12-07T14:39:03;94048.38;;;10.40;100.00
6433;BME280;3249;42.690;23.260;2022-12-07T14:41:28;94045.00;;;10.28;100.00
6433;BME280;3249;42.690;23.260;2022-12-07T14:44:12;94049.38;;;10.09;100.00
6433;BME280;3249;42.690;23.260;2022-12-07T14:46:38;94052.88;;;10.15;100.00
6433;BME280;3249;42.690;23.260;2022-12-07T14:49:03;94046.66;;;10.22;100.00
6433;BME280;3249;42.690;23.260;2022-12-07T14:51:28;94040.91;;;10.09;100.00
6433;BME280;3249;42.690;23.260;2022-12-07T14:53:54;94048.88;;;9.71;100.00
6433;BME280;3249;42.690;23.260;2022-12-07T14:56:20;94035.16;;;9.41;100.00
6433;BME280;3249;42.690;23.260;2022-12-07T14:58:46;94043.63;;;9.59;100.00
6433;BME280;3249;42.690;23.260;2022-12-07T15:01:13;94034.06;;;9.67;100.00
6433;BME280;3249;42.690;23.260;2022-12-07T15:03:38;94053.56;;;9.74;100.00
6433;BME280;3249;42.690;23.260;2022-12-07T15:06:05;94043.94;;;9.33;100.00
6433;BME280;3249;42.690;23.260;2022-12-07T15:08:30;94038.56;;;8.99;100.00
6433;BME280;3249;42.690;23.260;2022-12-07T15:10:56;94051.53;;;9.28;100.00
6433;BME280;3249;42.690;23.260;2022-12-07T15:13:21;94067.72;;;9.47;100.00
6433;BME280;3249;42.690;23.260;2022-12-07T15:16:10;94060.66;;;9.42;100.00
6433;BME280;3249;42.690;23.260;2022-12-07T15:18:35;94060.72;;;9.36;100.00
6433;BME280;3249;42.690;23.260;2022-12-07T15:21:01;94047.03;;;8.99;100.00
6433;BME280;3249;42.690;23.260;2022-12-07T15:23:26;94049.53;;;8.39;100.00